sensor_id;sensor_type;location;lat;lon;timestamp;pressure;altitude;pressure_sealevel;temperature;humidity
78373;BME280;67656;52.074;4.758;2023-02-15T00:04:43;102975.78;;;-0.08;100.00
78373;BME280;67656;52.074;4.758;2023-02-15T00:09:47;102978.94;;;0.03;100.00
78373;BME280;67656;52.074;4.758;2023-02-15T00:14:48;102963.16;;;0.16;100.00
78373;BME280;67656;52.074;4.758;2023-02-15T00:19:48;102969.22;;;-0.02;100.00
78373;BME280;67656;52.074;4.758;2023-02-15T00:24:49;102960.94;;;0.06;100.00
78373;BME280;67656;52.074;4.758;2023-02-15T00:29:49;102952.63;;;0.13;100.00
78373;BME280;67656;52.074;4.758;2023-02-15T00:34:50;102949.56;;;0.04;100.00
78373;BME280;67656;52.074;4.758;2023-02-15T00:39:50;102945.34;;;0.06;100.00
78373;BME280;67656;52.074;4.758;2023-02-15T00:44:51;102937.59;;;-0.11;100.00
78373;BME280;67656;52.074;4.758;2023-02-15T00:49:51;102942.47;;;-0.17;100.00
78373;BME280;67656;52.074;4.758;2023-02-15T00:54:52;102949.16;;;-0.22;100.00
78373;BME280;67656;52.074;4.758;2023-02-15T00:59:52;102945.75;;;-0.21;100.00
78373;BME280;67656;52.074;4.758;2023-02-15T01:04:53;102941.47;;;-0.37;100.00
78373;BME280;67656;52.074;4.758;2023-02-15T01:09:57;102935.91;;;-0.45;100.00
78373;BME280;67656;52.074;4.758;2023-02-15T01:14:57;102931.59;;;-0.44;100.00
78373;BME280;67656;52.074;4.758;2023-02-15T01:19:59;102922.78;;;-0.48;100.00
78373;BME280;67656;52.074;4.758;2023-02-15T01:24:59;102914.56;;;-0.39;100.00
78373;BME280;67656;52.074;4.758;2023-02-15T01:30:03;102901.34;;;-0.44;100.00
78373;BME280;67656;52.074;4.758;2023-02-15T01:35:04;102902.31;;;-0.42;100.00
78373;BME280;67656;52.074;4.758;2023-02-15T01:40:09;102889.59;;;-0.72;100.00
78373;BME280;67656;52.074;4.758;2023-02-15T01:45:25;102894.19;;;-0.66;100.00
78373;BME280;67656;52.074;4.758;2023-02-15T01:50:30;102891.19;;;-0.74;100.00
78373;BME280;67656;52.074;4.758;2023-02-15T01:55:36;102892.66;;;-0.79;100.00
78373;BME280;67656;52.074;4.758;2023-02-15T02:00:39;102896.84;;;-0.81;100.00
78373;BME280;67656;52.074;4.758;2023-02-15T02:05:41;102887.81;;;-0.73;100.00
78373;BME280;67656;52.074;4.758;2023-02-15T02:10:41;102881.81;;;-0.72;100.00
78373;BME280;67656;52.074;4.758;2023-02-15T02:16:08;102880.47;;;-0.64;100.00
78373;BME280;67656;52.074;4.758;2023-02-15T02:32:23;102857.84;;;-0.84;100.00
78373;BME280;67656;52.074;4.758;2023-02-15T02:43:05;102851.84;;;-1.00;100.00
78373;BME280;67656;52.074;4.758;2023-02-15T02:48:20;102836.59;;;-0.94;100.00
78373;BME280;67656;52.074;4.758;2023-02-15T02:53:23;102824.16;;;-1.01;100.00
78373;BME280;67656;52.074;4.758;2023-02-15T02:58:39;102825.34;;;-0.94;100.00
78373;BME280;67656;52.074;4.758;2023-02-15T03:09:29;102809.81;;;-1.11;100.00
78373;BME280;67656;52.074;4.758;2023-02-15T03:14:33;102817.69;;;-1.26;100.00
78373;BME280;67656;52.074;4.758;2023-02-15T03:19:37;102815.91;;;-1.27;100.00
78373;BME280;67656;52.074;4.758;2023-02-15T03:25:12;102827.22;;;-1.41;100.00
78373;BME280;67656;52.074;4.758;2023-02-15T03:30:11;102813.66;;;-1.37;100.00
78373;BME280;67656;52.074;4.758;2023-02-15T03:35:22;102804.91;;;-1.22;100.00
78373;BME280;67656;52.074;4.758;2023-02-15T03:40:32;102798.00;;;-1.22;100.00
78373;BME280;67656;52.074;4.758;2023-02-15T03:45:36;102804.41;;;-1.15;100.00
78373;BME280;67656;52.074;4.758;2023-02-15T03:50:39;102802.44;;;-1.19;100.00
78373;BME280;67656;52.074;4.758;2023-02-15T03:55:48;102793.66;;;-1.40;100.00
78373;BME280;67656;52.074;4.758;2023-02-15T04:00:54;102779.81;;;-1.40;100.00
78373;BME280;67656;52.074;4.758;2023-02-15T04:05:55;102781.09;;;-1.32;100.00
78373;BME280;67656;52.074;4.758;2023-02-15T04:10:55;102773.81;;;-1.22;100.00
78373;BME280;67656;52.074;4.758;2023-02-15T04:15:57;102776.81;;;-1.15;100.00
78373;BME280;67656;52.074;4.758;2023-02-15T04:20:58;102771.94;;;-1.25;100.00
78373;BME280;67656;52.074;4.758;2023-02-15T04:25:58;102760.91;;;-1.04;100.00
78373;BME280;67656;52.074;4.758;2023-02-15T04:30:59;102754.81;;;-1.05;100.00
78373;BME280;67656;52.074;4.758;2023-02-15T04:35:59;102753.59;;;-0.95;100.00
78373;BME280;67656;52.074;4.758;2023-02-15T04:41:02;102759.00;;;-0.90;100.00
78373;BME280;67656;52.074;4.758;2023-02-15T04:46:04;102752.88;;;-0.56;100.00
78373;BME280;67656;52.074;4.758;2023-02-15T04:51:07;102749.91;;;-0.10;100.00
78373;BME280;67656;52.074;4.758;2023-02-15T04:56:08;102747.09;;;0.23;100.00
78373;BME280;67656;52.074;4.758;2023-02-15T05:01:11;102742.16;;;0.10;100.00
78373;BME280;67656;52.074;4.758;2023-02-15T05:06:12;102739.97;;;0.19;100.00
78373;BME280;67656;52.074;4.758;2023-02-15T05:11:12;102741.69;;;0.19;100.00
78373;BME280;67656;52.074;4.758;2023-02-15T05:16:13;102741.63;;;0.17;100.00
78373;BME280;67656;52.074;4.758;2023-02-15T05:21:13;102740.31;;;0.07;100.00
78373;BME280;67656;52.074;4.758;2023-02-15T05:26:18;102735.72;;;0.02;100.00
78373;BME280;67656;52.074;4.758;2023-02-15T05:31:21;102736.53;;;0.01;100.00
78373;BME280;67656;52.074;4.758;2023-02-15T05:36:21;102730.22;;;-0.05;100.00
78373;BME280;67656;52.074;4.758;2023-02-15T05:41:22;102730.19;;;-0.06;100.00
78373;BME280;67656;52.074;4.758;2023-02-15T05:46:22;102724.03;;;-0.08;100.00
78373;BME280;67656;52.074;4.758;2023-02-15T05:51:23;102724.94;;;-0.08;100.00
78373;BME280;67656;52.074;4.758;2023-02-15T05:56:23;102724.63;;;-0.14;100.00
78373;BME280;67656;52.074;4.758;2023-02-15T06:01:27;102717.66;;;-0.15;100.00
78373;BME280;67656;52.074;4.758;2023-02-15T06:06:31;102710.56;;;-0.19;100.00
78373;BME280;67656;52.074;4.758;2023-02-15T06:11:31;102711.88;;;-0.27;100.00
78373;BME280;67656;52.074;4.758;2023-02-15T06:16:31;102719.97;;;-0.21;100.00
78373;BME280;67656;52.074;4.758;2023-02-15T06:21:34;102716.63;;;-0.19;100.00
78373;BME280;67656;52.074;4.758;2023-02-15T06:26:38;102726.34;;;-0.14;100.00
78373;BME280;67656;52.074;4.758;2023-02-15T06:31:38;102715.59;;;-0.22;100.00
78373;BME280;67656;52.074;4.758;2023-02-15T06:36:38;102711.88;;;-0.27;100.00
78373;BME280;67656;52.074;4.758;2023-02-15T06:41:39;102723.47;;;-0.39;100.00
78373;BME280;67656;52.074;4.758;2023-02-15T06:46:39;102721.41;;;-0.46;100.00
78373;BME280;67656;52.074;4.758;2023-02-15T06:51:40;102719.31;;;-0.53;100.00
78373;BME280;67656;52.074;4.758;2023-02-15T06:56:40;102719.31;;;-0.53;100.00
78373;BME280;67656;52.074;4.758;2023-02-15T07:01:41;102714.56;;;-0.44;100.00
78373;BME280;67656;52.074;4.758;2023-02-15T07:06:41;102697.09;;;-0.48;100.00
78373;BME280;67656;52.074;4.758;2023-02-15T07:11:42;102703.53;;;-0.40;100.00
78373;BME280;67656;52.074;4.758;2023-02-15T07:16:43;102702.22;;;-0.32;100.00
78373;BME280;67656;52.074;4.758;2023-02-15T07:21:43;102699.00;;;-0.26;100.00
78373;BME280;67656;52.074;4.758;2023-02-15T07:26:43;102701.66;;;-0.24;100.00
78373;BME280;67656;52.074;4.758;2023-02-15T07:31:44;102699.69;;;-0.30;100.00
78373;BME280;67656;52.074;4.758;2023-02-15T07:36:47;102688.94;;;-0.38;100.00
78373;BME280;67656;52.074;4.758;2023-02-15T07:41:47;102686.56;;;-0.33;100.00
78373;BME280;67656;52.074;4.758;2023-02-15T07:46:47;102692.16;;;-0.24;100.00
78373;BME280;67656;52.074;4.758;2023-02-15T07:51:48;102677.75;;;-0.17;100.00
78373;BME280;67656;52.074;4.758;2023-02-15T07:56:48;102673.13;;;-0.05;100.00
78373;BME280;67656;52.074;4.758;2023-02-15T08:01:49;102674.09;;;-0.03;100.00
78373;BME280;67656;52.074;4.758;2023-02-15T08:06:52;102670.28;;;0.09;100.00
78373;BME280;67656;52.074;4.758;2023-02-15T08:11:53;102676.78;;;0.19;100.00
78373;BME280;67656;52.074;4.758;2023-02-15T08:16:54;102668.31;;;0.23;100.00
78373;BME280;67656;52.074;4.758;2023-02-15T08:22:00;102663.13;;;0.23;100.00
78373;BME280;67656;52.074;4.758;2023-02-15T08:27:00;102653.59;;;0.43;100.00
78373;BME280;67656;52.074;4.758;2023-02-15T08:32:07;102659.09;;;0.51;100.00
78373;BME280;67656;52.074;4.758;2023-02-15T08:37:08;102658.38;;;0.74;100.00
78373;BME280;67656;52.074;4.758;2023-02-15T08:42:08;102650.78;;;0.79;100.00
78373;BME280;67656;52.074;4.758;2023-02-15T08:47:09;102652.97;;;0.91;100.00
78373;BME280;67656;52.074;4.758;2023-02-15T08:52:09;102650.25;;;1.09;100.00
78373;BME280;67656;52.074;4.758;2023-02-15T08:57:10;102651.50;;;1.19;100.00
78373;BME280;67656;52.074;4.758;2023-02-15T09:02:10;102646.91;;;1.34;100.00
78373;BME280;67656;52.074;4.758;2023-02-15T09:07:10;102643.97;;;1.48;100.00
78373;BME280;67656;52.074;4.758;2023-02-15T09:12:11;102654.06;;;1.63;100.00
78373;BME280;67656;52.074;4.758;2023-02-15T09:17:11;102649.50;;;1.80;100.00
78373;BME280;67656;52.074;4.758;2023-02-15T09:22:11;102650.94;;;1.96;100.00
78373;BME280;67656;52.074;4.758;2023-02-15T09:27:12;102658.66;;;2.17;100.00
78373;BME280;67656;52.074;4.758;2023-02-15T09:32:14;102651.88;;;2.46;100.00
78373;BME280;67656;52.074;4.758;2023-02-15T09:37:14;102653.47;;;2.67;100.00
78373;BME280;67656;52.074;4.758;2023-02-15T09:53:09;102647.53;;;3.26;100.00
78373;BME280;67656;52.074;4.758;2023-02-15T10:04:04;102647.34;;;3.78;100.00
78373;BME280;67656;52.074;4.758;2023-02-15T10:09:25;102645.06;;;3.89;100.00
78373;BME280;67656;52.074;4.758;2023-02-15T10:30:27;102634.66;;;4.56;100.00
78373;BME280;67656;52.074;4.758;2023-02-15T10:35:48;102633.78;;;4.90;100.00
78373;BME280;67656;52.074;4.758;2023-02-15T10:41:29;102636.69;;;5.03;100.00
78373;BME280;67656;52.074;4.758;2023-02-15T11:02:09;102595.09;;;5.98;100.00
78373;BME280;67656;52.074;4.758;2023-02-15T11:07:35;102599.59;;;6.53;100.00
78373;BME280;67656;52.074;4.758;2023-02-15T11:12:40;102591.59;;;6.45;100.00
78373;BME280;67656;52.074;4.758;2023-02-15T11:17:46;102584.69;;;6.50;100.00
78373;BME280;67656;52.074;4.758;2023-02-15T11:22:49;102559.97;;;6.91;100.00
78373;BME280;67656;52.074;4.758;2023-02-15T11:27:51;102557.69;;;7.16;100.00
78373;BME280;67656;52.074;4.758;2023-02-15T11:32:55;102547.28;;;7.23;100.00
78373;BME280;67656;52.074;4.758;2023-02-15T11:38:06;102553.97;;;7.67;100.00
78373;BME280;67656;52.074;4.758;2023-02-15T11:43:17;102546.69;;;7.45;100.00
78373;BME280;67656;52.074;4.758;2023-02-15T11:48:20;102546.94;;;7.66;100.00
78373;BME280;67656;52.074;4.758;2023-02-15T11:53:22;102551.56;;;7.86;100.00
78373;BME280;67656;52.074;4.758;2023-02-15T11:58:43;102541.13;;;7.95;100.00
78373;BME280;67656;52.074;4.758;2023-02-15T12:03:48;102527.22;;;8.04;100.00
78373;BME280;67656;52.074;4.758;2023-02-15T12:09:05;102532.06;;;8.56;100.00
78373;BME280;67656;52.074;4.758;2023-02-15T12:14:12;102507.22;;;8.26;100.00
78373;BME280;67656;52.074;4.758;2023-02-15T12:24:28;102509.47;;;8.86;100.00
78373;BME280;67656;52.074;4.758;2023-02-15T12:29:40;102509.63;;;9.27;100.00
78373;BME280;67656;52.074;4.758;2023-02-15T12:34:44;102508.00;;;9.60;100.00
78373;BME280;67656;52.074;4.758;2023-02-15T12:40:18;102492.25;;;9.97;100.00
78373;BME280;67656;52.074;4.758;2023-02-15T12:45:29;102502.78;;;9.75;100.00
78373;BME280;67656;52.074;4.758;2023-02-15T12:50:30;102498.34;;;9.63;100.00
78373;BME280;67656;52.074;4.758;2023-02-15T12:55:30;102495.66;;;9.43;100.00
78373;BME280;67656;52.074;4.758;2023-02-15T13:00:31;102497.44;;;9.53;100.00
78373;BME280;67656;52.074;4.758;2023-02-15T13:05:44;102484.28;;;9.64;100.00
78373;BME280;67656;52.074;4.758;2023-02-15T13:16:02;102478.16;;;9.73;100.00
78373;BME280;67656;52.074;4.758;2023-02-15T13:21:27;102470.25;;;9.79;100.00
78373;BME280;67656;52.074;4.758;2023-02-15T13:26:38;102462.38;;;9.89;100.00
78373;BME280;67656;52.074;4.758;2023-02-15T13:32:22;102457.97;;;9.77;100.00
78373;BME280;67656;52.074;4.758;2023-02-15T15:08:36;102421.81;;;9.21;100.00
78373;BME280;67656;52.074;4.758;2023-02-15T16:14:15;102418.66;;;8.24;100.00
78373;BME280;67656;52.074;4.758;2023-02-15T16:18:59;102410.53;;;7.91;100.00
78373;BME280;67656;52.074;4.758;2023-02-15T16:36:00;102386.53;;;7.52;100.00
78373;BME280;67656;52.074;4.758;2023-02-15T16:41:38;102392.63;;;7.47;100.00
78373;BME280;67656;52.074;4.758;2023-02-15T16:47:12;102395.91;;;7.27;100.00
78373;BME280;67656;52.074;4.758;2023-02-15T16:52:37;102401.91;;;7.18;100.00
78373;BME280;67656;52.074;4.758;2023-02-15T16:58:05;102405.25;;;7.02;100.00
78373;BME280;67656;52.074;4.758;2023-02-15T17:24:34;102430.44;;;6.89;100.00
78373;BME280;67656;52.074;4.758;2023-02-15T17:35:26;102413.53;;;6.65;100.00
78373;BME280;67656;52.074;4.758;2023-02-15T17:40:33;102427.53;;;6.66;100.00
78373;BME280;67656;52.074;4.758;2023-02-15T17:45:48;102413.34;;;6.53;100.00
78373;BME280;67656;52.074;4.758;2023-02-15T17:51:15;102413.97;;;6.35;100.00
78373;BME280;67656;52.074;4.758;2023-02-15T17:56:18;102421.56;;;6.16;100.00
78373;BME280;67656;52.074;4.758;2023-02-15T18:01:27;102420.31;;;5.95;100.00
78373;BME280;67656;52.074;4.758;2023-02-15T18:06:28;102418.59;;;5.96;100.00
78373;BME280;67656;52.074;4.758;2023-02-15T18:11:51;102422.59;;;5.75;100.00
78373;BME280;67656;52.074;4.758;2023-02-15T18:16:51;102426.97;;;5.76;100.00
78373;BME280;67656;52.074;4.758;2023-02-15T18:21:52;102427.31;;;5.95;100.00
78373;BME280;67656;52.074;4.758;2023-02-15T18:26:53;102425.66;;;6.00;100.00
78373;BME280;67656;52.074;4.758;2023-02-15T18:31:54;102423.84;;;5.99;100.00
78373;BME280;67656;52.074;4.758;2023-02-15T18:36:56;102430.91;;;6.00;100.00
78373;BME280;67656;52.074;4.758;2023-02-15T18:41:57;102432.28;;;5.79;100.00
78373;BME280;67656;52.074;4.758;2023-02-15T18:46:58;102424.69;;;5.95;100.00
78373;BME280;67656;52.074;4.758;2023-02-15T18:52:00;102425.47;;;5.91;100.00
78373;BME280;67656;52.074;4.758;2023-02-15T18:57:04;102417.75;;;5.97;100.00
78373;BME280;67656;52.074;4.758;2023-02-15T19:02:12;102422.16;;;5.99;100.00
78373;BME280;67656;52.074;4.758;2023-02-15T19:07:21;102412.31;;;5.88;100.00
78373;BME280;67656;52.074;4.758;2023-02-15T19:12:24;102407.72;;;5.73;100.00
78373;BME280;67656;52.074;4.758;2023-02-15T19:17:24;102417.13;;;5.63;100.00
78373;BME280;67656;52.074;4.758;2023-02-15T19:22:29;102420.59;;;5.60;100.00
78373;BME280;67656;52.074;4.758;2023-02-15T19:27:34;102417.72;;;5.46;100.00
78373;BME280;67656;52.074;4.758;2023-02-15T19:32:37;102408.19;;;5.51;100.00
78373;BME280;67656;52.074;4.758;2023-02-15T19:37:40;102404.44;;;5.37;100.00
78373;BME280;67656;52.074;4.758;2023-02-15T19:42:43;102413.44;;;5.50;100.00
78373;BME280;67656;52.074;4.758;2023-02-15T19:47:43;102410.66;;;5.42;100.00
78373;BME280;67656;52.074;4.758;2023-02-15T19:52:44;102408.41;;;5.62;100.00
78373;BME280;67656;52.074;4.758;2023-02-15T19:57:49;102409.13;;;5.53;100.00
78373;BME280;67656;52.074;4.758;2023-02-15T20:02:50;102399.34;;;5.45;100.00
78373;BME280;67656;52.074;4.758;2023-02-15T20:07:53;102383.78;;;5.51;100.00
78373;BME280;67656;52.074;4.758;2023-02-15T20:13:03;102398.41;;;5.41;100.00
78373;BME280;67656;52.074;4.758;2023-02-15T20:18:16;102393.19;;;5.41;100.00
78373;BME280;67656;52.074;4.758;2023-02-15T20:23:37;102412.19;;;5.31;100.00
78373;BME280;67656;52.074;4.758;2023-02-15T20:28:40;102414.06;;;5.38;100.00
78373;BME280;67656;52.074;4.758;2023-02-15T20:33:46;102408.72;;;5.32;100.00
78373;BME280;67656;52.074;4.758;2023-02-15T20:38:56;102404.31;;;5.29;100.00
78373;BME280;67656;52.074;4.758;2023-02-15T20:44:17;102390.41;;;5.33;100.00
78373;BME280;67656;52.074;4.758;2023-02-15T20:49:47;102391.94;;;5.20;100.00
78373;BME280;67656;52.074;4.758;2023-02-15T20:55:26;102392.78;;;5.19;100.00
78373;BME280;67656;52.074;4.758;2023-02-15T21:00:31;102397.13;;;5.19;100.00
78373;BME280;67656;52.074;4.758;2023-02-15T21:05:53;102388.06;;;5.01;100.00
78373;BME280;67656;52.074;4.758;2023-02-15T21:11:10;102386.94;;;4.88;100.00
78373;BME280;67656;52.074;4.758;2023-02-15T21:16:26;102401.25;;;5.06;100.00
78373;BME280;67656;52.074;4.758;2023-02-15T21:21:42;102398.19;;;5.27;100.00
78373;BME280;67656;52.074;4.758;2023-02-15T21:26:45;102388.38;;;5.66;100.00
78373;BME280;67656;52.074;4.758;2023-02-15T21:31:46;102385.31;;;5.90;100.00
78373;BME280;67656;52.074;4.758;2023-02-15T21:36:47;102376.69;;;5.99;100.00
78373;BME280;67656;52.074;4.758;2023-02-15T21:41:50;102389.22;;;6.15;100.00
78373;BME280;67656;52.074;4.758;2023-02-15T21:46:50;102383.91;;;6.09;100.00
78373;BME280;67656;52.074;4.758;2023-02-15T21:51:51;102381.47;;;6.23;100.00
78373;BME280;67656;52.074;4.758;2023-02-15T21:56:51;102386.63;;;6.17;100.00
78373;BME280;67656;52.074;4.758;2023-02-15T22:01:51;102378.03;;;6.27;100.00
78373;BME280;67656;52.074;4.758;2023-02-15T22:06:52;102383.16;;;6.20;100.00
78373;BME280;67656;52.074;4.758;2023-02-15T22:11:53;102385.75;;;6.17;100.00
78373;BME280;67656;52.074;4.758;2023-02-15T22:16:54;102384.75;;;6.08;100.00
78373;BME280;67656;52.074;4.758;2023-02-15T22:21:54;102397.81;;;6.05;100.00
78373;BME280;67656;52.074;4.758;2023-02-15T22:26:54;102390.91;;;6.10;100.00
78373;BME280;67656;52.074;4.758;2023-02-15T22:31:55;102385.56;;;6.04;100.00
78373;BME280;67656;52.074;4.758;2023-02-15T22:36:57;102381.03;;;5.97;100.00
78373;BME280;67656;52.074;4.758;2023-02-15T22:41:57;102385.31;;;5.92;100.00
78373;BME280;67656;52.074;4.758;2023-02-15T22:46:59;102388.66;;;5.81;100.00
78373;BME280;67656;52.074;4.758;2023-02-15T22:52:04;102392.13;;;5.80;100.00
78373;BME280;67656;52.074;4.758;2023-02-15T22:57:08;102392.84;;;5.70;100.00
78373;BME280;67656;52.074;4.758;2023-02-15T23:02:14;102391.84;;;5.65;100.00
78373;BME280;67656;52.074;4.758;2023-02-15T23:07:16;102390.09;;;5.64;100.00
78373;BME280;67656;52.074;4.758;2023-02-15T23:12:24;102390.78;;;5.53;100.00
78373;BME280;67656;52.074;4.758;2023-02-15T23:17:25;102391.69;;;5.56;100.00
78373;BME280;67656;52.074;4.758;2023-02-15T23:22:25;102393.31;;;5.47;100.00
78373;BME280;67656;52.074;4.758;2023-02-15T23:27:26;102394.81;;;5.34;100.00
78373;BME280;67656;52.074;4.758;2023-02-15T23:32:26;102390.41;;;5.33;100.00
78373;BME280;67656;52.074;4.758;2023-02-15T23:37:27;102382.66;;;5.38;100.00
78373;BME280;67656;52.074;4.758;2023-02-15T23:42:29;102391.09;;;5.21;100.00
78373;BME280;67656;52.074;4.758;2023-02-15T23:47:32;102390.13;;;5.18;100.00
78373;BME280;67656;52.074;4.758;2023-02-15T23:52:33;102385.72;;;5.15;100.00
78373;BME280;67656;52.074;4.758;2023-02-15T23:57:33;102384.00;;;5.16;100.00
